Time;durP1;ratioP1;P1;durP2;ratioP2;P2;SDS_P1;SDS_P2;PMS_P1;PMS_P2;Temp;Humidity;BMP_temperature;BMP_pressure;BME280_temperature;BME280_humidity;BME280_pressure;Samples;Min_cycle;Max_cycle;Signal;HPM_P1;HPM_P2
2021/06/13 00:01:35;;;;;;;10.03;3.30;;;;;;;;;;5104922;28;20024;-69
2021/06/13 00:04:01;;;;;;;13.50;3.13;;;;;;;;;;5116115;28;20040;-69
2021/06/13 00:06:26;;;;;;;11.53;3.17;;;;;;;;;;5120146;27;21191;-69
2021/06/13 00:08:51;;;;;;;13.40;3.00;;;;;;;;;;5114164;28;20023;-69
2021/06/13 00:11:17;;;;;;;9.13;2.90;;;;;;;;;;5108067;28;20094;-69
2021/06/13 00:13:43;;;;;;;10.20;2.87;;;;;;;;;;5109733;28;20031;-69
2021/06/13 00:16:08;;;;;;;8.70;2.83;;;;;;;;;;5101196;28;20027;-69
2021/06/13 00:18:34;;;;;;;11.10;4.00;;;;;;;;;;5108318;28;20379;-69
2021/06/13 00:20:59;;;;;;;10.63;2.97;;;;;;;;;;5114153;28;20028;-69
2021/06/13 00:23:25;;;;;;;15.60;3.67;;;;;;;;;;5103027;28;20017;-69
2021/06/13 00:25:50;;;;;;;13.47;2.77;;;;;;;;;;5110588;28;20500;-69
2021/06/13 00:28:15;;;;;;;12.87;2.83;;;;;;;;;;5112381;28;20483;-69
2021/06/13 00:30:41;;;;;;;11.23;2.67;;;;;;;;;;5114702;28;20099;-69
2021/06/13 00:33:07;;;;;;;14.03;3.23;;;;;;;;;;5110544;28;20024;-69
2021/06/13 00:35:33;;;;;;;9.63;3.13;;;;;;;;;;5110426;28;20027;-69
2021/06/13 00:37:58;;;;;;;8.63;2.77;;;;;;;;;;5108017;28;20035;-69
2021/06/13 00:40:24;;;;;;;9.57;3.00;;;;;;;;;;5108347;28;20032;-69
2021/06/13 00:42:50;;;;;;;8.93;3.10;;;;;;;;;;5112100;28;20035;-69
2021/06/13 00:45:16;;;;;;;15.27;3.87;;;;;;;;;;5103801;28;20015;-69
2021/06/13 00:47:41;;;;;;;8.60;3.13;;;;;;;;;;5105072;28;20133;-69
2021/06/13 00:50:08;;;;;;;20.60;3.83;;;;;;;;;;5097490;28;20094;-69
2021/06/13 00:52:34;;;;;;;11.33;3.87;;;;;;;;;;5109617;28;20015;-69
2021/06/13 00:55:00;;;;;;;13.33;3.53;;;;;;;;;;5113526;27;20374;-69
2021/06/13 00:57:25;;;;;;;9.37;2.90;;;;;;;;;;5104039;28;20016;-69
2021/06/13 00:59:50;;;;;;;12.83;3.70;;;;;;;;;;5104495;28;20012;-69
2021/06/13 01:02:16;;;;;;;12.47;3.33;;;;;;;;;;5103356;28;20053;-69
2021/06/13 01:04:41;;;;;;;10.23;3.43;;;;;;;;;;5108728;28;20093;-69
2021/06/13 01:07:36;;;;;;;8.57;3.57;;;;;;;;;;5110696;28;20022;-69
2021/06/13 01:10:24;;;;;;;9.13;3.17;;;;;;;;;;5000980;28;20067;-69
2021/06/13 01:12:58;;;;;;;10.10;3.73;;;;;;;;;;5106003;28;20038;-69
2021/06/13 01:15:29;;;;;;;14.10;4.10;;;;;;;;;;5102441;28;20346;-69
2021/06/13 01:18:23;;;;;;;10.97;3.47;;;;;;;;;;5104349;28;20367;-69
2021/06/13 01:20:54;;;;;;;9.90;3.33;;;;;;;;;;5045467;28;20028;-69
2021/06/13 01:23:38;;;;;;;10.87;3.40;;;;;;;;;;5030157;28;20454;-69
2021/06/13 01:26:22;;;;;;;8.17;3.60;;;;;;;;;;5038355;28;20394;-69
2021/06/13 01:29:17;;;;;;;11.70;3.33;;;;;;;;;;5036246;28;20104;-69
2021/06/13 01:31:51;;;;;;;13.60;3.80;;;;;;;;;;5010446;28;20029;-69
2021/06/13 01:34:24;;;;;;;12.03;3.57;;;;;;;;;;5028834;28;20025;-69
2021/06/13 01:36:50;;;;;;;12.57;3.87;;;;;;;;;;5025146;28;20171;-69
2021/06/13 01:39:17;;;;;;;9.13;3.63;;;;;;;;;;5036028;28;20100;-69
2021/06/13 01:41:44;;;;;;;16.43;4.23;;;;;;;;;;5023161;28;20472;-69
2021/06/13 01:44:10;;;;;;;14.37;3.97;;;;;;;;;;5035734;28;20026;-69
2021/06/13 01:46:37;;;;;;;10.23;3.33;;;;;;;;;;5039289;28;20028;-69
2021/06/13 01:49:03;;;;;;;12.17;3.43;;;;;;;;;;5037147;28;20079;-71
2021/06/13 01:51:30;;;;;;;13.77;3.97;;;;;;;;;;5041120;28;20026;-72
2021/06/13 01:53:55;;;;;;;12.60;3.87;;;;;;;;;;5029498;28;20140;-71
2021/06/13 01:56:21;;;;;;;12.77;4.00;;;;;;;;;;5041015;28;20475;-69
2021/06/13 01:58:48;;;;;;;10.67;4.30;;;;;;;;;;5097220;28;20016;-69
2021/06/13 02:01:15;;;;;;;13.30;4.00;;;;;;;;;;5108873;28;20016;-69
2021/06/13 02:03:47;;;;;;;16.27;4.73;;;;;;;;;;5103237;28;20046;-69
2021/06/13 02:06:13;;;;;;;16.50;3.77;;;;;;;;;;5101732;28;20023;-69
2021/06/13 02:08:39;;;;;;;16.80;4.47;;;;;;;;;;5112133;28;20022;-69
2021/06/13 02:11:08;;;;;;;15.13;4.47;;;;;;;;;;5105390;28;20050;-69
2021/06/13 02:13:33;;;;;;;14.20;4.23;;;;;;;;;;5106807;28;20041;-69
2021/06/13 02:15:59;;;;;;;12.03;4.17;;;;;;;;;;5098014;28;20023;-69
2021/06/13 02:18:26;;;;;;;13.17;4.10;;;;;;;;;;5106981;28;20489;-69
2021/06/13 02:20:51;;;;;;;16.07;4.53;;;;;;;;;;5111295;28;20062;-69
2021/06/13 02:23:17;;;;;;;14.20;4.40;;;;;;;;;;5102613;28;20444;-71
2021/06/13 02:25:42;;;;;;;14.53;4.80;;;;;;;;;;5100907;28;20048;-71
2021/06/13 02:28:08;;;;;;;15.70;4.53;;;;;;;;;;5106258;28;20043;-69
2021/06/13 02:30:36;;;;;;;17.60;4.53;;;;;;;;;;5099465;28;20421;-69
2021/06/13 02:33:02;;;;;;;20.40;4.57;;;;;;;;;;5105411;28;20022;-68
2021/06/13 02:35:28;;;;;;;14.03;4.43;;;;;;;;;;5100572;28;20023;-69
2021/06/13 02:37:55;;;;;;;12.17;4.30;;;;;;;;;;5102847;28;20098;-69
2021/06/13 02:40:20;;;;;;;16.83;4.57;;;;;;;;;;5106277;28;20059;-69
2021/06/13 02:42:45;;;;;;;13.60;4.27;;;;;;;;;;5095146;28;20044;-69
2021/06/13 02:45:12;;;;;;;13.83;4.53;;;;;;;;;;5107766;28;20360;-69
2021/06/13 02:47:38;;;;;;;13.10;4.30;;;;;;;;;;5099475;28;20046;-69
2021/06/13 02:50:06;;;;;;;15.60;4.83;;;;;;;;;;5102998;28;20015;-68
2021/06/13 02:52:45;;;;;;;11.40;4.80;;;;;;;;;;5105959;28;20024;-68
2021/06/13 02:55:14;;;;;;;19.20;4.97;;;;;;;;;;5106176;28;20022;-69
2021/06/13 02:57:53;;;;;;;10.07;3.77;;;;;;;;;;5108222;28;20027;-68
2021/06/13 03:00:19;;;;;;;13.60;4.33;;;;;;;;;;5101737;28;20105;-69
2021/06/13 03:02:46;;;;;;;13.87;4.60;;;;;;;;;;5099894;28;20456;-68
2021/06/13 03:05:12;;;;;;;10.90;3.80;;;;;;;;;;5101678;28;20039;-69
2021/06/13 03:07:38;;;;;;;12.70;4.50;;;;;;;;;;5106860;28;20026;-68
2021/06/13 03:10:05;;;;;;;18.57;4.37;;;;;;;;;;5096001;28;20027;-69
2021/06/13 03:12:31;;;;;;;14.90;4.53;;;;;;;;;;5104131;28;20023;-68
2021/06/13 03:14:57;;;;;;;16.37;4.20;;;;;;;;;;5103610;28;20028;-68
2021/06/13 03:17:22;;;;;;;15.53;4.57;;;;;;;;;;5109229;28;20517;-68
2021/06/13 03:19:49;;;;;;;15.30;4.73;;;;;;;;;;5105942;28;20027;-68
2021/06/13 03:22:15;;;;;;;17.50;4.57;;;;;;;;;;5111078;28;20443;-68
2021/06/13 03:24:41;;;;;;;15.83;4.53;;;;;;;;;;5104236;28;20023;-69
2021/06/13 03:27:07;;;;;;;12.23;4.33;;;;;;;;;;5106967;28;20028;-68
2021/06/13 03:29:34;;;;;;;15.10;4.87;;;;;;;;;;5109253;28;20073;-68
2021/06/13 03:32:00;;;;;;;11.17;3.70;;;;;;;;;;5112221;28;20102;-69
2021/06/13 03:34:26;;;;;;;12.37;4.23;;;;;;;;;;5104157;28;20085;-69
2021/06/13 03:36:52;;;;;;;15.60;4.50;;;;;;;;;;5109981;28;20028;-69
2021/06/13 03:39:18;;;;;;;13.30;5.00;;;;;;;;;;5114312;28;20015;-69
2021/06/13 03:41:44;;;;;;;17.73;4.93;;;;;;;;;;5108441;28;20460;-68
2021/06/13 03:44:09;;;;;;;12.53;4.63;;;;;;;;;;5106610;28;20028;-72
2021/06/13 03:46:36;;;;;;;20.23;4.73;;;;;;;;;;5109131;28;20047;-71
2021/06/13 03:49:03;;;;;;;14.33;4.20;;;;;;;;;;5109055;28;20021;-69
2021/06/13 03:51:28;;;;;;;15.20;4.73;;;;;;;;;;5106629;28;20452;-69
2021/06/13 03:53:56;;;;;;;12.30;4.20;;;;;;;;;;5110507;28;20051;-69
2021/06/13 03:56:25;;;;;;;13.57;4.53;;;;;;;;;;5112560;27;20092;-69
2021/06/13 03:58:51;;;;;;;15.50;4.27;;;;;;;;;;5109875;28;20093;-70
2021/06/13 04:01:17;;;;;;;10.10;4.03;;;;;;;;;;5102895;28;20039;-69
2021/06/13 04:03:45;;;;;;;8.07;3.83;;;;;;;;;;5103569;28;20399;-69
2021/06/13 04:06:12;;;;;;;11.00;4.23;;;;;;;;;;5111666;27;20042;-71
2021/06/13 04:08:37;;;;;;;12.50;3.70;;;;;;;;;;5106622;28;20095;-72
2021/06/13 04:11:04;;;;;;;10.40;4.33;;;;;;;;;;5110937;28;20098;-73
2021/06/13 04:13:29;;;;;;;11.83;3.73;;;;;;;;;;5109623;28;20081;-73
2021/06/13 04:15:55;;;;;;;16.17;3.63;;;;;;;;;;5110157;28;20391;-73
2021/06/13 04:18:20;;;;;;;7.93;3.13;;;;;;;;;;5104497;28;20023;-73
2021/06/13 04:20:46;;;;;;;9.90;3.40;;;;;;;;;;5112092;28;20023;-73
2021/06/13 04:23:15;;;;;;;10.63;3.83;;;;;;;;;;5105972;28;20016;-73
2021/06/13 04:25:43;;;;;;;11.07;3.30;;;;;;;;;;5111267;28;20018;-73
2021/06/13 04:28:11;;;;;;;5.93;3.00;;;;;;;;;;5103087;28;20023;-73
2021/06/13 04:30:36;;;;;;;11.67;3.43;;;;;;;;;;5106138;28;20020;-73
2021/06/13 04:33:02;;;;;;;11.70;3.10;;;;;;;;;;5109167;28;20027;-72
2021/06/13 04:35:27;;;;;;;7.70;2.70;;;;;;;;;;5110196;28;20026;-73
2021/06/13 04:37:53;;;;;;;9.57;2.77;;;;;;;;;;5112945;28;20509;-73
2021/06/13 04:40:18;;;;;;;6.97;2.93;;;;;;;;;;5111661;28;20027;-73
2021/06/13 04:42:44;;;;;;;8.67;2.80;;;;;;;;;;5113868;28;20019;-72
2021/06/13 04:45:10;;;;;;;8.73;2.90;;;;;;;;;;5110238;28;20122;-73
2021/06/13 04:47:36;;;;;;;8.83;2.90;;;;;;;;;;5107893;28;20056;-72
2021/06/13 04:50:01;;;;;;;9.90;3.23;;;;;;;;;;5112362;28;20027;-72
2021/06/13 04:52:28;;;;;;;9.43;2.73;;;;;;;;;;5108484;28;20405;-73
2021/06/13 04:55:12;;;;;;;8.57;3.10;;;;;;;;;;5111833;27;20024;-72
2021/06/13 04:57:47;;;;;;;9.80;3.47;;;;;;;;;;5104676;28;20074;-72
2021/06/13 05:00:13;;;;;;;8.27;3.10;;;;;;;;;;5105681;28;20038;-73
2021/06/13 05:02:39;;;;;;;9.60;3.50;;;;;;;;;;5112087;28;20511;-72
2021/06/13 05:05:05;;;;;;;10.57;3.33;;;;;;;;;;5109596;28;20123;-73
2021/06/13 05:07:31;;;;;;;9.93;2.77;;;;;;;;;;5105195;28;20015;-73
2021/06/13 05:09:56;;;;;;;7.40;2.67;;;;;;;;;;5107728;28;20028;-73
2021/06/13 05:12:22;;;;;;;7.97;3.07;;;;;;;;;;5100233;28;20065;-73
2021/06/13 05:14:47;;;;;;;10.03;2.63;;;;;;;;;;5105552;28;20356;-72
2021/06/13 05:17:12;;;;;;;7.70;2.50;;;;;;;;;;5106219;28;20054;-72
2021/06/13 05:19:37;;;;;;;11.00;3.00;;;;;;;;;;5101469;28;20032;-72
2021/06/13 05:22:04;;;;;;;5.87;2.63;;;;;;;;;;5100388;28;20356;-73
2021/06/13 05:24:29;;;;;;;6.03;2.80;;;;;;;;;;5108987;28;20039;-72
2021/06/13 05:26:54;;;;;;;8.43;2.53;;;;;;;;;;5112604;28;20073;-71
2021/06/13 05:29:20;;;;;;;7.18;2.78;;;;;;;;;;5109840;28;20027;-72
2021/06/13 05:31:45;;;;;;;9.27;2.80;;;;;;;;;;5106778;28;20528;-72
2021/06/13 05:34:10;;;;;;;7.75;2.50;;;;;;;;;;5110223;28;20081;-72
2021/06/13 05:36:36;;;;;;;6.60;2.33;;;;;;;;;;5109565;28;20072;-72
2021/06/13 05:39:01;;;;;;;5.53;2.22;;;;;;;;;;5108477;28;20068;-73
2021/06/13 05:41:26;;;;;;;9.10;2.30;;;;;;;;;;5103976;28;20046;-72
2021/06/13 05:43:52;;;;;;;8.15;2.28;;;;;;;;;;5107073;28;20141;-72
2021/06/13 05:46:19;;;;;;;5.80;2.20;;;;;;;;;;5102285;28;20023;-72
2021/06/13 05:48:45;;;;;;;7.90;2.33;;;;;;;;;;5100869;28;20396;-72
2021/06/13 05:51:10;;;;;;;8.57;2.72;;;;;;;;;;5104715;28;20052;-72
2021/06/13 05:53:35;;;;;;;9.18;2.75;;;;;;;;;;5109926;28;20407;-72
2021/06/13 05:56:01;;;;;;;7.32;2.22;;;;;;;;;;5099181;28;20480;-71
2021/06/13 05:58:26;;;;;;;7.60;2.50;;;;;;;;;;5102468;28;20027;-72
2021/06/13 06:00:51;;;;;;;6.18;2.30;;;;;;;;;;5107622;28;20027;-72
2021/06/13 06:03:17;;;;;;;9.85;2.50;;;;;;;;;;5105599;28;20063;-71
2021/06/13 06:05:42;;;;;;;6.20;2.10;;;;;;;;;;5106639;28;20100;-71
2021/06/13 06:08:08;;;;;;;7.57;2.42;;;;;;;;;;5105836;28;20408;-71
2021/06/13 06:10:34;;;;;;;11.10;2.50;;;;;;;;;;5100264;28;20050;-72
2021/06/13 06:13:01;;;;;;;7.18;2.40;;;;;;;;;;5104047;28;20160;-71
2021/06/13 06:15:27;;;;;;;7.18;2.17;;;;;;;;;;5101920;28;20408;-72
2021/06/13 06:17:53;;;;;;;6.63;2.17;;;;;;;;;;5105694;28;20027;-72
2021/06/13 06:20:20;;;;;;;10.35;2.30;;;;;;;;;;5102677;28;20038;-71
2021/06/13 06:22:45;;;;;;;5.97;1.90;;;;;;;;;;5103274;28;20133;-71
2021/06/13 06:25:11;;;;;;;4.72;1.90;;;;;;;;;;5116628;27;20098;-71
2021/06/13 06:27:36;;;;;;;9.48;2.03;;;;;;;;;;5111410;27;20114;-71
2021/06/13 06:30:03;;;;;;;7.40;2.20;;;;;;;;;;5102631;28;20039;-72
2021/06/13 06:32:28;;;;;;;5.65;2.03;;;;;;;;;;5109494;28;20031;-71
2021/06/13 06:34:53;;;;;;;8.27;2.35;;;;;;;;;;5096878;28;20036;-71
2021/06/13 06:37:19;;;;;;;6.63;1.98;;;;;;;;;;5108378;28;20080;-71
2021/06/13 06:39:44;;;;;;;7.75;2.47;;;;;;;;;;5108256;28;20096;-71
2021/06/13 06:42:09;;;;;;;6.65;2.08;;;;;;;;;;5103189;28;20431;-71
2021/06/13 06:44:35;;;;;;;8.15;2.15;;;;;;;;;;5109586;28;20042;-71
2021/06/13 06:47:02;;;;;;;6.10;1.83;;;;;;;;;;5110221;28;20136;-71
2021/06/13 06:49:30;;;;;;;7.25;1.88;;;;;;;;;;5110024;28;20030;-71
2021/06/13 06:51:56;;;;;;;8.20;1.77;;;;;;;;;;5108162;28;20046;-71
2021/06/13 06:54:21;;;;;;;8.13;2.22;;;;;;;;;;5095884;28;20464;-72
2021/06/13 06:56:47;;;;;;;11.23;1.85;;;;;;;;;;5106833;28;20027;-71
2021/06/13 06:59:12;;;;;;;8.80;2.10;;;;;;;;;;5099292;28;20472;-72
2021/06/13 07:01:38;;;;;;;9.50;1.77;;;;;;;;;;5099393;28;20036;-71
2021/06/13 07:04:04;;;;;;;7.72;2.03;;;;;;;;;;5102832;28;20062;-71
2021/06/13 07:06:29;;;;;;;5.82;1.67;;;;;;;;;;5104910;28;20028;-71
2021/06/13 07:08:55;;;;;;;5.35;2.03;;;;;;;;;;5109252;28;20107;-71
2021/06/13 07:11:20;;;;;;;7.13;1.75;;;;;;;;;;5106778;28;20137;-71
2021/06/13 07:13:45;;;;;;;4.85;1.70;;;;;;;;;;5101576;28;20031;-72
2021/06/13 07:16:11;;;;;;;6.28;2.00;;;;;;;;;;5111321;28;20035;-71
2021/06/13 07:18:37;;;;;;;5.97;1.63;;;;;;;;;;5110142;28;20024;-72
2021/06/13 07:21:03;;;;;;;7.47;2.13;;;;;;;;;;5105560;28;20354;-72
2021/06/13 07:23:28;;;;;;;7.00;1.90;;;;;;;;;;5101265;28;20054;-71
2021/06/13 07:25:53;;;;;;;6.45;1.52;;;;;;;;;;5105134;28;20486;-71
2021/06/13 07:28:18;;;;;;;7.60;1.80;;;;;;;;;;5098268;28;20035;-71
2021/06/13 07:30:44;;;;;;;6.68;1.60;;;;;;;;;;5104794;28;20035;-71
2021/06/13 07:33:09;;;;;;;4.50;1.58;;;;;;;;;;5110692;28;20115;-71
2021/06/13 07:35:35;;;;;;;3.63;1.50;;;;;;;;;;5106798;28;20061;-72
2021/06/13 07:38:01;;;;;;;6.22;1.50;;;;;;;;;;5105787;28;20061;-71
2021/06/13 07:40:27;;;;;;;5.55;1.70;;;;;;;;;;5109077;28;20024;-72
2021/06/13 07:42:55;;;;;;;5.47;1.38;;;;;;;;;;5108538;28;20034;-72
2021/06/13 07:45:21;;;;;;;4.57;1.30;;;;;;;;;;5101214;28;20422;-72
2021/06/13 07:47:47;;;;;;;5.93;1.63;;;;;;;;;;5100407;28;20028;-71
2021/06/13 07:50:13;;;;;;;4.40;1.65;;;;;;;;;;5110037;28;20027;-71
2021/06/13 07:52:38;;;;;;;5.32;1.40;;;;;;;;;;5101875;28;20056;-71
2021/06/13 07:55:05;;;;;;;6.13;1.45;;;;;;;;;;5103785;28;20410;-71
2021/06/13 07:57:34;;;;;;;5.90;1.33;;;;;;;;;;5099846;28;20016;-72
2021/06/13 07:59:59;;;;;;;5.40;1.63;;;;;;;;;;5103480;28;20047;-72
2021/06/13 08:02:25;;;;;;;6.43;1.60;;;;;;;;;;5109230;28;20096;-72
2021/06/13 08:04:55;;;;;;;5.25;1.30;;;;;;;;;;5102274;28;20480;-72
2021/06/13 08:07:21;;;;;;;5.13;1.30;;;;;;;;;;5106498;28;20105;-72
2021/06/13 08:09:46;;;;;;;7.40;1.60;;;;;;;;;;5101628;28;20063;-72
2021/06/13 08:12:11;;;;;;;7.53;1.75;;;;;;;;;;5097826;28;20028;-73
2021/06/13 08:14:37;;;;;;;7.38;1.50;;;;;;;;;;5106215;28;20522;-73
2021/06/13 08:17:03;;;;;;;8.20;1.58;;;;;;;;;;5111207;28;20027;-73
2021/06/13 08:19:28;;;;;;;5.40;1.60;;;;;;;;;;5108675;28;20458;-73
2021/06/13 08:21:53;;;;;;;5.43;1.70;;;;;;;;;;5112611;28;20034;-72
2021/06/13 08:24:19;;;;;;;5.18;1.40;;;;;;;;;;5103075;28;20022;-73
2021/06/13 08:26:44;;;;;;;3.92;1.27;;;;;;;;;;5102405;28;20341;-73
2021/06/13 08:29:09;;;;;;;4.25;1.38;;;;;;;;;;5103733;28;20042;-74
2021/06/13 08:31:35;;;;;;;4.45;1.50;;;;;;;;;;5107500;28;20020;-74
2021/06/13 08:34:00;;;;;;;5.43;1.40;;;;;;;;;;5106946;28;20030;-74
2021/06/13 08:36:26;;;;;;;5.20;1.58;;;;;;;;;;5108985;28;20120;-74
2021/06/13 08:38:55;;;;;;;5.57;1.30;;;;;;;;;;5107812;28;20072;-73
2021/06/13 08:41:20;;;;;;;3.60;1.23;;;;;;;;;;5096784;28;20012;-73
2021/06/13 08:43:46;;;;;;;4.05;1.05;;;;;;;;;;5109884;28;20031;-73
2021/06/13 08:46:12;;;;;;;5.43;1.48;;;;;;;;;;5101291;28;20031;-73
2021/06/13 08:48:37;;;;;;;7.30;1.50;;;;;;;;;;5114571;28;20024;-74
2021/06/13 08:51:03;;;;;;;3.75;1.58;;;;;;;;;;5110687;28;20020;-74
2021/06/13 08:53:28;;;;;;;3.70;1.50;;;;;;;;;;5109661;28;20094;-74
2021/06/13 08:55:53;;;;;;;4.68;1.40;;;;;;;;;;5107476;28;20028;-73
2021/06/13 08:58:19;;;;;;;4.30;1.40;;;;;;;;;;5114821;28;20440;-73
2021/06/13 09:00:46;;;;;;;3.80;1.08;;;;;;;;;;5115136;28;20024;-73
2021/06/13 09:03:12;;;;;;;4.95;1.70;;;;;;;;;;5115018;28;20023;-74
2021/06/13 09:05:37;;;;;;;7.80;1.60;;;;;;;;;;5111095;28;20135;-74
2021/06/13 09:08:06;;;;;;;5.07;1.80;;;;;;;;;;5106868;28;20502;-75
2021/06/13 09:10:32;;;;;;;5.65;1.52;;;;;;;;;;5108559;27;20028;-74
2021/06/13 09:13:17;;;;;;;7.10;1.92;;;;;;;;;;5106335;27;20607;-74
2021/06/13 09:15:47;;;;;;;7.97;1.50;;;;;;;;;;5101850;28;20157;-73
2021/06/13 09:18:47;;;;;;;6.57;1.80;;;;;;;;;;5108929;28;20031;-74
2021/06/13 09:21:39;;;;;;;3.92;1.42;;;;;;;;;;5022525;28;20038;-73
2021/06/13 09:24:22;;;;;;;6.82;1.63;;;;;;;;;;5028421;28;20045;-73
2021/06/13 09:26:47;;;;;;;4.53;1.30;;;;;;;;;;5019371;28;20561;-74
2021/06/13 09:29:13;;;;;;;4.22;1.20;;;;;;;;;;5031582;28;20067;-73
2021/06/13 09:31:38;;;;;;;6.63;1.65;;;;;;;;;;5021297;28;20049;-74
2021/06/13 09:34:08;;;;;;;5.45;1.50;;;;;;;;;;5021222;28;20026;-75
2021/06/13 09:36:34;;;;;;;3.95;1.50;;;;;;;;;;5029647;28;20076;-75
2021/06/13 09:39:04;;;;;;;4.53;1.50;;;;;;;;;;5033183;28;20556;-74
2021/06/13 09:41:30;;;;;;;4.68;1.40;;;;;;;;;;5025950;28;20041;-74
2021/06/13 09:44:02;;;;;;;4.90;1.35;;;;;;;;;;5033499;28;20112;-75
2021/06/13 09:46:32;;;;;;;6.38;1.67;;;;;;;;;;5026257;28;20414;-75
2021/06/13 09:49:03;;;;;;;4.35;1.50;;;;;;;;;;5028532;28;20030;-74
2021/06/13 09:51:33;;;;;;;5.65;1.70;;;;;;;;;;5027943;28;20071;-75
2021/06/13 09:53:58;;;;;;;5.30;1.42;;;;;;;;;;5009818;28;20084;-75
2021/06/13 09:56:34;;;;;;;5.85;2.20;;;;;;;;;;5099219;28;20040;-75
2021/06/13 09:59:09;;;;;;;5.45;1.33;;;;;;;;;;5112499;28;20529;-75
2021/06/13 10:01:38;;;;;;;6.40;1.38;;;;;;;;;;5104071;28;20028;-76
2021/06/13 10:04:05;;;;;;;5.25;1.55;;;;;;;;;;5103201;28;20054;-75
2021/06/13 10:06:32;;;;;;;4.70;1.40;;;;;;;;;;5125132;27;20027;-75
2021/06/13 10:08:57;;;;;;;5.55;1.50;;;;;;;;;;5108901;28;20023;-74
2021/06/13 10:11:23;;;;;;;3.47;1.17;;;;;;;;;;5106671;28;20375;-76
2021/06/13 10:13:50;;;;;;;6.35;1.15;;;;;;;;;;5102815;28;20051;-75
2021/06/13 10:16:35;;;;;;;4.78;1.33;;;;;;;;;;5108548;28;20033;-73
2021/06/13 10:19:05;;;;;;;4.55;1.33;;;;;;;;;;5107693;28;20420;-73
2021/06/13 10:21:35;;;;;;;5.90;1.58;;;;;;;;;;5101190;28;20088;-72
2021/06/13 10:24:02;;;;;;;3.80;1.10;;;;;;;;;;5100635;28;20027;-73
2021/06/13 10:26:27;;;;;;;3.90;1.20;;;;;;;;;;5110104;28;20026;-73
2021/06/13 10:28:53;;;;;;;5.78;1.30;;;;;;;;;;5110001;28;20024;-75
2021/06/13 10:31:18;;;;;;;5.70;1.30;;;;;;;;;;5106757;28;20049;-74
2021/06/13 10:33:44;;;;;;;3.63;1.30;;;;;;;;;;5109456;28;20026;-73
2021/06/13 10:36:10;;;;;;;3.42;1.10;;;;;;;;;;5104662;28;20360;-74
2021/06/13 10:38:36;;;;;;;5.70;1.27;;;;;;;;;;5096654;28;20024;-74
2021/06/13 10:41:03;;;;;;;4.68;1.30;;;;;;;;;;5105548;28;20542;-73
2021/06/13 10:43:29;;;;;;;7.43;1.40;;;;;;;;;;5105617;28;20053;-73
2021/06/13 10:46:08;;;;;;;4.57;1.20;;;;;;;;;;5092667;28;20047;-73
2021/06/13 10:48:38;;;;;;;4.35;1.50;;;;;;;;;;5110852;28;20024;-73
2021/06/13 10:51:22;;;;;;;5.70;1.70;;;;;;;;;;5108793;28;20024;-74
2021/06/13 10:53:47;;;;;;;5.18;1.65;;;;;;;;;;5104900;28;20731;-73
2021/06/13 10:56:22;;;;;;;3.78;1.42;;;;;;;;;;5097423;27;20020;-73
2021/06/13 10:58:53;;;;;;;8.00;1.58;;;;;;;;;;5109458;28;20114;-73
2021/06/13 11:01:23;;;;;;;4.35;1.00;;;;;;;;;;5102100;28;20497;-74
2021/06/13 11:04:02;;;;;;;3.22;1.20;;;;;;;;;;5095002;28;20858;-73
2021/06/13 11:06:40;;;;;;;6.07;1.83;;;;;;;;;;5106617;28;20464;-73
2021/06/13 11:09:07;;;;;;;4.25;1.42;;;;;;;;;;5108036;28;20569;-73
2021/06/13 11:11:33;;;;;;;4.07;1.40;;;;;;;;;;5102543;28;20027;-73
2021/06/13 11:14:17;;;;;;;3.13;1.30;;;;;;;;;;5109186;28;20020;-73
2021/06/13 11:16:42;;;;;;;4.82;1.30;;;;;;;;;;5101988;28;20066;-73
2021/06/13 11:19:27;;;;;;;5.22;1.20;;;;;;;;;;5109277;28;20063;-73
2021/06/13 11:22:11;;;;;;;3.30;1.13;;;;;;;;;;5105336;28;20032;-73
2021/06/13 11:24:49;;;;;;;5.07;1.45;;;;;;;;;;5106426;28;20141;-73
2021/06/13 11:27:15;;;;;;;6.95;1.67;;;;;;;;;;5100198;28;20534;-72
2021/06/13 11:29:53;;;;;;;7.38;1.35;;;;;;;;;;5097077;28;20051;-72
2021/06/13 11:32:37;;;;;;;5.03;1.23;;;;;;;;;;5096867;28;20024;-72
2021/06/13 11:35:21;;;;;;;7.20;1.70;;;;;;;;;;5105039;28;20753;-71
2021/06/13 11:37:46;;;;;;;7.32;1.70;;;;;;;;;;5109108;28;20028;-72
2021/06/13 11:40:28;;;;;;;4.60;1.45;;;;;;;;;;5105159;28;20027;-72
2021/06/13 11:42:53;;;;;;;;;;;;;;;;;;5096119;28;20028;-72
2021/06/13 11:45:31;;;;;;;5.10;1.00;;;;;;;;;;5108473;28;19935;-72
2021/06/13 11:48:16;;;;;;;5.50;1.23;;;;;;;;;;5106435;28;20277;-72
2021/06/13 11:50:41;;;;;;;4.32;1.27;;;;;;;;;;5098520;28;20563;-72
2021/06/13 11:53:10;;;;;;;3.80;1.30;;;;;;;;;;5107259;28;20019;-72
2021/06/13 11:55:52;;;;;;;3.92;1.20;;;;;;;;;;5114008;27;20430;-72
2021/06/13 11:58:17;;;;;;;;;;;;;;;;;;5113703;28;20023;-72
2021/06/13 12:00:42;;;;;;;5.03;1.23;;;;;;;;;;5111286;28;19957;-71
2021/06/13 12:03:10;;;;;;;3.33;1.33;;;;;;;;;;5106957;28;21017;-71
2021/06/13 12:05:35;;;;;;;3.38;1.23;;;;;;;;;;5099641;28;20130;-71
2021/06/13 12:08:00;;;;;;;5.75;1.40;;;;;;;;;;5111003;28;20440;-71
2021/06/13 12:10:31;;;;;;;5.22;1.42;;;;;;;;;;5103937;28;20035;-71
2021/06/13 12:13:09;;;;;;;3.15;1.10;;;;;;;;;;5102293;28;20032;-71
2021/06/13 12:15:34;;;;;;;5.22;1.45;;;;;;;;;;5106481;28;20027;-71
2021/06/13 12:18:02;;;;;;;5.05;1.33;;;;;;;;;;5105722;28;20065;-71
2021/06/13 12:20:27;;;;;;;2.25;1.00;;;;;;;;;;5113194;28;20372;-71
2021/06/13 12:23:07;;;;;;;3.50;1.23;;;;;;;;;;5112431;28;20043;-71
2021/06/13 12:28:17;;;;;;;5.15;1.30;;;;;;;;;;5110339;28;20084;-70
2021/06/13 12:30:43;;;;;;;3.58;1.30;;;;;;;;;;5112894;28;20747;-70
2021/06/13 12:33:10;;;;;;;4.75;1.48;;;;;;;;;;5109776;28;20092;-70
2021/06/13 12:35:46;;;;;;;3.38;1.10;;;;;;;;;;5104787;27;20023;-70
2021/06/13 12:38:13;;;;;;;3.90;1.30;;;;;;;;;;5109220;28;20053;-69
2021/06/13 12:40:40;;;;;;;3.30;1.10;;;;;;;;;;5112308;28;20039;-69
2021/06/13 12:43:06;;;;;;;4.60;1.52;;;;;;;;;;5110782;28;20119;-69
2021/06/13 12:45:31;;;;;;;4.10;1.17;;;;;;;;;;5104847;28;20803;-70
2021/06/13 12:47:58;;;;;;;4.40;1.15;;;;;;;;;;5102823;28;20035;-70
2021/06/13 12:50:52;;;;;;;4.68;1.50;;;;;;;;;;5103023;28;20016;-69
2021/06/13 12:53:17;;;;;;;4.75;1.27;;;;;;;;;;5011345;28;20050;-70
2021/06/13 12:55:47;;;;;;;4.82;1.30;;;;;;;;;;5027041;28;20032;-69
2021/06/13 12:58:16;;;;;;;5.15;1.30;;;;;;;;;;5015570;28;20069;-70
2021/06/13 13:00:42;;;;;;;5.13;1.30;;;;;;;;;;5020427;28;20108;-70
2021/06/13 13:03:12;;;;;;;4.97;1.40;;;;;;;;;;5017795;28;20480;-69
2021/06/13 13:05:38;;;;;;;4.03;1.30;;;;;;;;;;5024534;28;20049;-69
2021/06/13 13:08:23;;;;;;;3.03;1.25;;;;;;;;;;5015535;28;20108;-69
2021/06/13 13:10:56;;;;;;;3.65;1.25;;;;;;;;;;5023094;28;20062;-69
2021/06/13 13:13:28;;;;;;;4.28;1.40;;;;;;;;;;5015411;28;20029;-69
2021/06/13 13:15:54;;;;;;;3.30;1.38;;;;;;;;;;5009894;28;20045;-69
2021/06/13 13:18:20;;;;;;;3.97;1.25;;;;;;;;;;5027715;28;20655;-69
2021/06/13 13:20:53;;;;;;;5.07;1.40;;;;;;;;;;5020983;28;20040;-69
2021/06/13 13:23:18;;;;;;;6.22;1.60;;;;;;;;;;5012061;28;20041;-69
2021/06/13 13:25:48;;;;;;;3.83;1.30;;;;;;;;;;5015181;28;20397;-68
2021/06/13 13:28:33;;;;;;;5.43;1.20;;;;;;;;;;5020098;28;20030;-68
2021/06/13 13:31:00;;;;;;;3.75;1.30;;;;;;;;;;5108391;28;20019;-69
2021/06/13 13:33:36;;;;;;;4.05;1.30;;;;;;;;;;5108654;28;20031;-69
2021/06/13 13:36:04;;;;;;;3.75;1.17;;;;;;;;;;5097409;28;20077;-69
2021/06/13 13:38:33;;;;;;;6.97;1.52;;;;;;;;;;5110112;28;20043;-69
2021/06/13 13:40:59;;;;;;;4.25;1.63;;;;;;;;;;5110908;28;20028;-68
2021/06/13 13:43:24;;;;;;;5.07;1.38;;;;;;;;;;5106299;28;20043;-68
2021/06/13 13:45:49;;;;;;;3.35;1.15;;;;;;;;;;5103485;28;20023;-69
2021/06/13 13:48:19;;;;;;;5.63;1.30;;;;;;;;;;5105459;28;20019;-68
2021/06/13 13:50:52;;;;;;;3.75;1.30;;;;;;;;;;5103696;28;20024;-68
2021/06/13 13:53:28;;;;;;;6.03;1.60;;;;;;;;;;5110771;28;20052;-68
2021/06/13 13:55:58;;;;;;;5.57;1.30;;;;;;;;;;5112953;27;20031;-69
2021/06/13 13:58:25;;;;;;;5.25;1.40;;;;;;;;;;5105724;28;20027;-68
2021/06/13 14:00:53;;;;;;;4.32;1.30;;;;;;;;;;5105817;28;20035;-68
2021/06/13 14:03:19;;;;;;;6.82;1.40;;;;;;;;;;5103311;28;20046;-68
2021/06/13 14:05:44;;;;;;;4.13;1.30;;;;;;;;;;5105858;28;20023;-68
2021/06/13 14:08:10;;;;;;;4.55;1.30;;;;;;;;;;5100588;28;20024;-68
2021/06/13 14:10:35;;;;;;;4.32;1.02;;;;;;;;;;5102982;28;20023;-69
2021/06/13 14:13:01;;;;;;;4.32;1.10;;;;;;;;;;5104007;28;20459;-68
2021/06/13 14:15:26;;;;;;;6.30;1.67;;;;;;;;;;5100793;28;20399;-68
2021/06/13 14:17:51;;;;;;;4.32;1.40;;;;;;;;;;5108439;28;20027;-68
2021/06/13 14:20:17;;;;;;;5.18;1.58;;;;;;;;;;5107958;28;20036;-68
2021/06/13 14:22:42;;;;;;;3.55;1.40;;;;;;;;;;5106931;28;20034;-69
2021/06/13 14:25:08;;;;;;;4.63;1.40;;;;;;;;;;5110147;28;20120;-68
2021/06/13 14:27:33;;;;;;;5.90;1.55;;;;;;;;;;5109774;28;20486;-68
2021/06/13 14:29:58;;;;;;;8.45;1.70;;;;;;;;;;5109979;28;20028;-68
2021/06/13 14:32:24;;;;;;;5.65;1.50;;;;;;;;;;5104217;28;20047;-68
2021/06/13 14:34:49;;;;;;;6.00;1.50;;;;;;;;;;5094393;28;20036;-69
2021/06/13 14:37:15;;;;;;;6.45;1.63;;;;;;;;;;5106643;27;20103;-68
2021/06/13 14:39:40;;;;;;;5.95;1.20;;;;;;;;;;5110145;28;20047;-68
2021/06/13 14:42:06;;;;;;;4.15;1.30;;;;;;;;;;5107266;28;20073;-69
2021/06/13 14:44:31;;;;;;;3.65;1.27;;;;;;;;;;5103541;28;20024;-69
2021/06/13 14:46:56;;;;;;;4.97;1.58;;;;;;;;;;5103085;28;20023;-68
2021/06/13 14:49:22;;;;;;;4.72;1.42;;;;;;;;;;5100066;28;20031;-68